createdAt,value
2022-08-17T00:00:43.756Z,54.90
2022-08-17T00:03:24.125Z,54.80
2022-08-17T00:06:08.447Z,54.90
2022-08-17T00:08:42.800Z,54.90
2022-08-17T00:12:43.465Z,55.00
2022-08-17T00:14:36.067Z,55.60
2022-08-17T00:17:06.397Z,55.60
2022-08-17T00:19:34.096Z,56.70
2022-08-17T00:22:31.289Z,57.00
2022-08-17T00:24:51.158Z,57.20
2022-08-17T00:27:20.409Z,57.70
2022-08-17T00:29:48.199Z,57.70
2022-08-17T00:33:12.019Z,57.90
2022-08-17T00:35:09.804Z,58.10
2022-08-17T00:37:37.107Z,58.80
2022-08-17T00:40:07.101Z,59.40
2022-08-17T00:42:34.792Z,59.10
2022-08-17T00:45:04.437Z,58.70
2022-08-17T00:47:32.156Z,58.00
2022-08-17T00:49:59.582Z,58.70
2022-08-17T00:52:38.822Z,58.20
2022-08-17T00:55:08.648Z,57.70
2022-08-17T00:57:44.432Z,58.00
2022-08-17T01:00:32.982Z,58.20
2022-08-17T01:03:09.993Z,58.10
2022-08-17T01:05:42.537Z,58.40
2022-08-17T01:08:16.772Z,58.30
2022-08-17T01:10:58.691Z,58.50
2022-08-17T01:13:40.962Z,61.00
2022-08-17T01:16:20.857Z,60.60
2022-08-17T01:18:58.638Z,60.90
2022-08-17T01:22:09.097Z,60.90
2022-08-17T01:24:45.932Z,61.10
2022-08-17T01:27:16.441Z,61.50
2022-08-17T01:29:56.838Z,60.40
2022-08-17T01:32:26.697Z,61.00
2022-08-17T01:34:55.428Z,60.80
2022-08-17T01:37:36.465Z,60.00
2022-08-17T01:40:34.804Z,60.70
2022-08-17T01:43:22.763Z,60.50
2022-08-17T01:46:02.856Z,60.20
2022-08-17T01:48:38.614Z,60.00
2022-08-17T01:51:07.614Z,60.00
2022-08-17T01:53:47.310Z,60.00
2022-08-17T01:56:21.319Z,59.90
2022-08-17T01:58:49.950Z,60.30
2022-08-17T02:01:30.224Z,60.60
2022-08-17T02:04:00.603Z,61.20
2022-08-17T02:06:44.918Z,61.80
2022-08-17T02:09:16.800Z,61.00
2022-08-17T02:11:45.372Z,61.90
2022-08-17T02:14:13.914Z,61.30
2022-08-17T02:16:42.219Z,61.70
2022-08-17T02:19:15.916Z,61.70
2022-08-17T02:21:48.496Z,61.90
2022-08-17T02:24:59.468Z,62.00
2022-08-17T02:27:20.478Z,61.80
2022-08-17T02:29:48.679Z,61.00
2022-08-17T02:32:27.857Z,60.70
2022-08-17T02:34:58.037Z,62.30
2022-08-17T02:37:28.233Z,63.20
2022-08-17T02:39:57.241Z,63.90
2022-08-17T02:42:36.484Z,63.50
2022-08-17T02:45:14.480Z,63.40
2022-08-17T02:47:44.165Z,62.70
2022-08-17T02:50:17.373Z,64.00
2022-08-17T02:52:48.825Z,64.30
2022-08-17T02:55:40.151Z,65.60
2022-08-17T02:58:10.632Z,66.80
2022-08-17T03:00:48.056Z,65.20
2022-08-17T03:03:20.901Z,65.00
2022-08-17T03:05:53.560Z,65.50
2022-08-17T03:08:21.971Z,64.60
2022-08-17T03:10:50.555Z,66.30
2022-08-17T03:13:18.006Z,65.80
2022-08-17T03:15:47.982Z,66.30
2022-08-17T03:18:24.486Z,66.70
2022-08-17T03:21:01.757Z,68.30
2022-08-17T03:23:30.332Z,67.90
2022-08-17T03:25:59.283Z,68.60
2022-08-17T03:28:29.108Z,68.90
2022-08-17T03:30:56.479Z,68.80
2022-08-17T03:33:23.853Z,68.00
2022-08-17T03:35:52.846Z,67.00
2022-08-17T03:38:20.613Z,67.90
2022-08-17T03:40:56.328Z,68.60
2022-08-17T03:43:32.717Z,68.60
2022-08-17T03:46:34.332Z,68.00
2022-08-17T03:49:26.658Z,68.50
2022-08-17T03:52:15.205Z,68.80
2022-08-17T03:55:03.801Z,69.40
2022-08-17T03:57:31.979Z,68.10
2022-08-17T03:59:59.808Z,68.80
2022-08-17T04:02:34.896Z,68.70
2022-08-17T04:05:02.486Z,70.10
2022-08-17T04:07:31.851Z,69.60
2022-08-17T04:10:00.397Z,70.30
2022-08-17T04:12:31.081Z,70.30
2022-08-17T04:14:59.059Z,70.50
2022-08-17T04:17:30.425Z,70.80
2022-08-17T04:19:58.225Z,70.70
2022-08-17T04:22:31.850Z,71.20
2022-08-17T04:25:20.725Z,71.80
2022-08-17T04:27:48.761Z,73.20
2022-08-17T04:30:16.997Z,73.50
2022-08-17T04:33:06.358Z,73.20
2022-08-17T04:35:47.857Z,73.70
2022-08-17T04:38:34.409Z,74.60
2022-08-17T04:41:22.229Z,73.90
2022-08-17T04:43:55.927Z,73.20
2022-08-17T04:46:33.665Z,73.90
2022-08-17T04:49:10.348Z,73.70
2022-08-17T04:51:55.693Z,73.40
2022-08-17T04:54:24.308Z,74.30
2022-08-17T04:56:51.647Z,73.60
2022-08-17T04:59:22.599Z,74.20
2022-08-17T05:01:52.315Z,73.20
2022-08-17T05:04:34.373Z,73.40
2022-08-17T05:07:04.481Z,73.40
2022-08-17T05:09:31.868Z,73.90
2022-08-17T05:12:03.065Z,74.80
2022-08-17T05:14:33.398Z,75.40
2022-08-17T05:17:07.469Z,74.90
2022-08-17T05:19:38.833Z,75.00
2022-08-17T05:22:06.769Z,75.20
2022-08-17T05:24:38.599Z,74.40
2022-08-17T05:27:10.875Z,74.40
2022-08-17T05:29:45.180Z,74.70
2022-08-17T05:32:39.479Z,74.50
2022-08-17T05:35:02.160Z,74.40
2022-08-17T05:37:29.516Z,74.50
2022-08-17T05:39:56.808Z,74.30
2022-08-17T05:42:24.257Z,73.70
2022-08-17T05:44:52.708Z,73.60
2022-08-17T05:47:22.213Z,73.00
2022-08-17T05:49:49.585Z,73.30
2022-08-17T05:53:10.850Z,73.90
2022-08-17T05:56:30.689Z,74.20
2022-08-17T05:59:40.781Z,73.50
2022-08-17T06:03:17.412Z,73.60
2022-08-17T06:05:53.528Z,73.20
2022-08-17T06:09:30.134Z,72.50
2022-08-17T06:12:54.274Z,72.10
2022-08-17T06:15:54.047Z,72.20
2022-08-17T06:18:28.623Z,70.30
2022-08-17T06:21:07.076Z,71.10
2022-08-17T06:23:55.447Z,70.20
2022-08-17T06:26:42.765Z,70.20
2022-08-17T06:30:01.769Z,69.70
2022-08-17T06:32:31.199Z,69.10
2022-08-17T06:35:11.397Z,69.40
2022-08-17T06:38:45.762Z,68.60
2022-08-17T06:41:38.109Z,68.80
2022-08-17T06:44:49.719Z,69.00
2022-08-17T06:47:29.644Z,68.60
2022-08-17T06:50:31.573Z,68.80
2022-08-17T06:53:59.879Z,68.50
2022-08-17T06:57:19.654Z,68.80
2022-08-17T07:00:16.585Z,69.00
2022-08-17T07:03:37.867Z,68.80
2022-08-17T07:06:27.903Z,69.00
2022-08-17T07:09:44.584Z,68.50
2022-08-17T07:12:25.636Z,68.00
2022-08-17T07:15:23.117Z,67.10
2022-08-17T07:17:56.932Z,66.40
2022-08-17T07:20:24.481Z,66.50
2022-08-17T07:23:34.475Z,65.80
2022-08-17T07:26:09.734Z,65.20
2022-08-17T07:28:38.620Z,64.90
2022-08-17T07:31:06.940Z,64.80
2022-08-17T07:33:36.896Z,64.60
2022-08-17T07:36:05.706Z,64.20
2022-08-17T07:38:35.597Z,64.20
2022-08-17T07:41:08.525Z,64.40
2022-08-17T07:43:51.044Z,63.20
2022-08-17T07:47:05.189Z,62.70
2022-08-17T07:49:32.270Z,62.20
2022-08-17T07:52:50.573Z,62.00
2022-08-17T07:55:45.400Z,62.40
2022-08-17T07:58:24.077Z,61.80
2022-08-17T08:01:15.512Z,61.50
2022-08-17T08:03:46.425Z,61.10
2022-08-17T08:06:26.389Z,60.60
2022-08-17T08:08:56.464Z,60.70
2022-08-17T08:11:37.544Z,60.30
2022-08-17T08:14:38.307Z,60.10
2022-08-17T08:17:09.366Z,59.90
2022-08-17T08:19:37.083Z,60.10
2022-08-17T08:22:29.593Z,60.40
2022-08-17T08:25:25.395Z,59.50
2022-08-17T08:28:14.954Z,59.80
2022-08-17T08:30:53.530Z,60.80
2022-08-17T08:33:51.308Z,60.90
2022-08-17T08:37:17.783Z,60.90
2022-08-17T08:40:42.991Z,61.10
2022-08-17T08:43:52.895Z,60.80
2022-08-17T08:46:53.751Z,59.60
2022-08-17T08:50:05.820Z,61.90
2022-08-17T08:53:13.008Z,62.50
2022-08-17T08:56:20.347Z,62.60
2022-08-17T08:59:41.970Z,62.80
2022-08-17T09:03:15.915Z,63.20
2022-08-17T09:06:39.129Z,65.70
2022-08-17T09:10:08.264Z,69.70
2022-08-17T09:13:35.384Z,67.90
2022-08-17T09:16:29.689Z,70.80
2022-08-17T09:19:46.413Z,67.90
2022-08-17T09:22:48.503Z,71.70
2022-08-17T09:25:33.440Z,72.80
2022-08-17T09:28:29.993Z,73.80
2022-08-17T09:31:17.533Z,73.50
2022-08-17T09:33:48.927Z,70.50
2022-08-17T09:36:49.957Z,72.90
2022-08-17T09:40:11.281Z,70.90
2022-08-17T09:42:53.396Z,69.00
2022-08-17T09:45:57.187Z,70.90
2022-08-17T09:48:55.317Z,70.70
2022-08-17T09:51:44.001Z,70.00
2022-08-17T09:54:39.221Z,70.40
2022-08-17T09:57:40.148Z,69.30
2022-08-17T10:00:31.284Z,68.50
2022-08-17T10:03:42.752Z,68.50
2022-08-17T10:06:30.623Z,67.20
2022-08-17T10:09:43.325Z,69.90
2022-08-17T10:13:14.717Z,67.40
2022-08-17T10:16:55.876Z,67.10
2022-08-17T10:19:57.620Z,66.10
2022-08-17T10:23:19.422Z,68.20
2022-08-17T10:26:24.964Z,67.80
2022-08-17T10:29:21.303Z,65.60
2022-08-17T10:32:03.500Z,64.40
2022-08-17T10:34:45.873Z,66.20
2022-08-17T10:38:38.954Z,63.50
2022-08-17T10:41:54.021Z,57.60
2022-08-17T10:44:56.583Z,58.60
2022-08-17T10:47:26.989Z,58.30
2022-08-17T10:49:55.986Z,59.30
2022-08-17T10:52:24.945Z,62.70
2022-08-17T10:54:57.938Z,62.00
2022-08-17T10:57:34.383Z,61.00
2022-08-17T11:00:10.456Z,60.00
2022-08-17T11:02:50.955Z,62.90
2022-08-17T11:05:55.500Z,59.20
2022-08-17T11:09:52.081Z,60.20
2022-08-17T11:13:10.949Z,60.60
2022-08-17T11:16:37.664Z,59.00
2022-08-17T11:19:58.144Z,58.20
2022-08-17T11:23:08.348Z,58.90
2022-08-17T11:26:04.145Z,59.30
2022-08-17T11:28:52.669Z,57.40
2022-08-17T11:31:42.639Z,56.50
2022-08-17T11:34:26.413Z,54.60
2022-08-17T11:37:55.035Z,56.30
2022-08-17T11:41:27.434Z,53.50
2022-08-17T11:44:22.809Z,52.70
2022-08-17T11:48:27.206Z,52.00
2022-08-17T11:51:35.016Z,52.00
2022-08-17T11:54:32.245Z,49.60
2022-08-17T11:56:56.715Z,49.60
2022-08-17T11:59:33.011Z,48.40
2022-08-17T12:02:31.478Z,50.70
2022-08-17T12:05:17.259Z,52.00
2022-08-17T12:08:15.193Z,50.20
2022-08-17T12:12:11.110Z,51.00
2022-08-17T12:15:07.839Z,49.70
2022-08-17T12:17:40.389Z,48.80
2022-08-17T12:20:42.818Z,48.30
2022-08-17T12:23:47.861Z,49.00
2022-08-17T12:26:23.195Z,49.40
2022-08-17T12:29:03.584Z,49.10
2022-08-17T12:31:51.376Z,47.20
2022-08-17T12:34:27.262Z,48.10
2022-08-17T12:37:29.560Z,47.40
2022-08-17T12:40:24.105Z,48.20
2022-08-17T12:43:19.576Z,47.10
2022-08-17T12:46:13.222Z,46.30
2022-08-17T12:48:58.898Z,47.30
2022-08-17T12:51:29.798Z,45.90
2022-08-17T12:53:57.438Z,47.60
2022-08-17T12:56:24.777Z,47.20
2022-08-17T12:58:54.406Z,45.70
2022-08-17T13:01:24.965Z,45.80
2022-08-17T13:03:57.243Z,46.00
2022-08-17T13:06:59.689Z,46.20
2022-08-17T13:09:35.752Z,48.00
2022-08-17T13:12:08.157Z,47.20
2022-08-17T13:14:35.686Z,47.30
2022-08-17T13:17:09.638Z,46.00
2022-08-17T13:19:50.807Z,46.60
2022-08-17T13:22:24.341Z,46.90
2022-08-17T13:25:05.322Z,45.70
2022-08-17T13:27:34.040Z,47.00
2022-08-17T13:30:12.759Z,47.40
2022-08-17T13:32:48.403Z,46.60
2022-08-17T13:35:49.923Z,46.40
2022-08-17T13:38:50.909Z,46.10
2022-08-17T13:41:34.951Z,45.70
2022-08-17T13:44:04.227Z,45.60
2022-08-17T13:46:34.796Z,47.30
2022-08-17T13:49:10.449Z,46.20
2022-08-17T13:51:50.189Z,45.80
2022-08-17T13:54:36.735Z,45.40
2022-08-17T13:57:23.233Z,45.70
2022-08-17T13:59:58.151Z,46.10
2022-08-17T14:02:27.684Z,46.70
2022-08-17T14:04:58.564Z,46.10
2022-08-17T14:07:37.700Z,46.00
2022-08-17T14:10:15.244Z,46.60
2022-08-17T14:12:45.887Z,48.60
2022-08-17T14:15:20.607Z,50.40
2022-08-17T14:17:52.628Z,50.40
2022-08-17T14:20:22.548Z,50.10
2022-08-17T14:22:55.875Z,49.70
2022-08-17T14:25:29.677Z,49.70
2022-08-17T14:27:57.397Z,49.90
2022-08-17T14:30:29.920Z,49.50
2022-08-17T14:32:58.792Z,49.30
2022-08-17T14:35:28.125Z,51.20
2022-08-17T14:37:56.362Z,57.30
2022-08-17T14:40:25.512Z,64.10
2022-08-17T14:42:56.479Z,63.70
2022-08-17T14:45:32.003Z,64.20
2022-08-17T14:48:07.690Z,66.20
2022-08-17T14:50:41.070Z,68.20
2022-08-17T14:53:14.309Z,71.40
2022-08-17T14:55:47.413Z,76.10
2022-08-17T14:58:15.998Z,73.80
2022-08-17T15:00:43.894Z,72.00
2022-08-17T15:03:11.811Z,75.40
2022-08-17T15:05:41.233Z,74.80
2022-08-17T15:08:08.777Z,74.00
2022-08-17T15:10:37.050Z,79.50
2022-08-17T15:13:04.983Z,77.70
2022-08-17T15:15:32.387Z,77.00
2022-08-17T15:18:00.254Z,78.10
2022-08-17T15:20:30.261Z,78.50
2022-08-17T15:22:59.119Z,74.90
2022-08-17T15:25:31.925Z,75.80
2022-08-17T15:28:00.957Z,73.20
2022-08-17T15:30:30.350Z,76.10
2022-08-17T15:33:00.607Z,73.70
2022-08-17T15:35:33.072Z,73.30
2022-08-17T15:38:11.750Z,75.60
2022-08-17T15:40:50.253Z,77.80
2022-08-17T15:43:27.874Z,75.50
2022-08-17T15:46:11.978Z,74.30
2022-08-17T15:48:44.759Z,76.10
2022-08-17T15:51:25.786Z,75.50
2022-08-17T15:54:19.033Z,73.70
2022-08-17T15:56:50.781Z,73.60
2022-08-17T15:59:19.419Z,75.00
2022-08-17T16:03:06.206Z,75.00
2022-08-17T16:04:34.154Z,75.80
2022-08-17T16:07:01.550Z,74.20
2022-08-17T16:09:28.922Z,74.40
2022-08-17T16:11:57.139Z,72.70
2022-08-17T16:14:32.423Z,74.50
2022-08-17T16:17:39.223Z,75.20
2022-08-17T16:19:54.306Z,75.30
2022-08-17T16:22:45.804Z,74.10
2022-08-17T16:25:47.153Z,74.80
2022-08-17T16:28:18.029Z,75.30
2022-08-17T16:30:45.853Z,75.50
2022-08-17T16:33:13.599Z,74.50
2022-08-17T16:35:42.786Z,76.20
2022-08-17T16:38:10.908Z,76.50
2022-08-17T16:40:38.457Z,76.90
2022-08-17T16:43:11.209Z,77.60
2022-08-17T16:45:40.860Z,75.70
2022-08-17T16:48:09.930Z,76.10
2022-08-17T16:50:38.209Z,76.00
2022-08-17T16:53:17.365Z,75.70
2022-08-17T16:55:51.993Z,76.70
2022-08-17T16:58:19.988Z,76.70
2022-08-17T17:00:48.769Z,76.00
2022-08-17T17:03:24.700Z,75.60
2022-08-17T17:07:03.852Z,75.20
2022-08-17T17:09:38.722Z,75.20
2022-08-17T17:12:17.581Z,73.70
2022-08-17T17:14:48.427Z,72.80
2022-08-17T17:17:36.079Z,72.40
2022-08-17T17:20:26.055Z,73.80
2022-08-17T17:23:41.046Z,75.10
2022-08-17T17:26:56.414Z,74.90
2022-08-17T17:30:38.345Z,75.40
2022-08-17T17:33:24.895Z,77.00
2022-08-17T17:36:29.163Z,76.40
2022-08-17T17:39:23.259Z,77.40
2022-08-17T17:42:02.642Z,77.70
2022-08-17T17:44:40.797Z,78.80
2022-08-17T17:47:08.681Z,77.80
2022-08-17T17:49:46.620Z,76.40
2022-08-17T17:52:53.868Z,76.90
2022-08-17T17:55:42.447Z,77.10
2022-08-17T17:59:04.166Z,78.30
2022-08-17T18:01:57.131Z,79.20
2022-08-17T18:04:55.172Z,76.00
2022-08-17T18:07:51.729Z,74.40
2022-08-17T18:10:36.628Z,75.90
2022-08-17T18:13:54.900Z,72.10
2022-08-17T18:16:26.473Z,71.50
2022-08-17T18:18:54.129Z,70.60
2022-08-17T18:21:37.893Z,71.30
2022-08-17T18:24:10.498Z,72.00
2022-08-17T18:26:55.372Z,70.70
2022-08-17T18:29:44.204Z,71.90
2022-08-17T18:32:40.796Z,71.90
2022-08-17T18:35:15.134Z,72.70
2022-08-17T18:37:50.449Z,72.80
2022-08-17T18:40:18.173Z,71.90
2022-08-17T18:43:36.523Z,73.70
2022-08-17T18:46:37.830Z,74.20
2022-08-17T18:49:29.221Z,72.80
2022-08-17T18:52:30.395Z,73.90
2022-08-17T18:55:31.220Z,74.30
2022-08-17T18:58:21.262Z,76.10
2022-08-17T19:00:50.408Z,76.20
2022-08-17T19:03:20.484Z,77.60
2022-08-17T19:06:30.093Z,76.70
2022-08-17T19:08:58.600Z,75.00
2022-08-17T19:11:34.352Z,75.90
2022-08-17T19:14:14.267Z,77.50
2022-08-17T19:17:16.472Z,77.70
2022-08-17T19:20:37.733Z,79.90
2022-08-17T19:23:59.099Z,76.70
2022-08-17T19:26:51.406Z,79.10
2022-08-17T19:30:07.896Z,77.90
2022-08-17T19:32:36.412Z,79.70
2022-08-17T19:35:16.660Z,78.70
2022-08-17T19:38:12.916Z,78.70
2022-08-17T19:41:22.073Z,78.30
2022-08-17T19:44:20.448Z,78.70
2022-08-17T19:47:43.026Z,79.60
2022-08-17T19:50:41.078Z,79.20
2022-08-17T19:54:05.803Z,79.60
2022-08-17T19:57:14.473Z,77.70
2022-08-17T20:00:02.229Z,78.90
2022-08-17T20:03:16.141Z,77.90
2022-08-17T20:06:12.460Z,78.70
2022-08-17T20:09:39.174Z,78.90
2022-08-17T20:12:17.345Z,79.00
2022-08-17T20:15:03.813Z,78.90
2022-08-17T20:17:42.267Z,78.70
2022-08-17T20:21:19.981Z,79.60
2022-08-17T20:24:35.505Z,80.10
2022-08-17T20:27:31.409Z,79.20
2022-08-17T20:30:37.909Z,80.50
2022-08-17T20:33:24.541Z,80.60
2022-08-17T20:36:22.598Z,80.50
2022-08-17T20:38:58.768Z,80.00
2022-08-17T20:41:30.739Z,80.70
2022-08-17T20:43:59.505Z,80.80
2022-08-17T20:46:37.915Z,79.80
2022-08-17T20:49:29.236Z,80.60
2022-08-17T20:52:13.647Z,81.20
2022-08-17T20:54:57.717Z,80.90
2022-08-17T20:57:48.777Z,80.60
2022-08-17T21:00:28.045Z,80.10
2022-08-17T21:03:50.423Z,80.40
2022-08-17T21:06:23.733Z,80.30
2022-08-17T21:09:29.947Z,79.40
2022-08-17T21:12:04.084Z,80.10
2022-08-17T21:15:02.538Z,79.70
2022-08-17T21:18:03.919Z,80.20
2022-08-17T21:21:20.579Z,80.90
2022-08-17T21:24:42.492Z,81.70
2022-08-17T21:27:46.277Z,81.10
2022-08-17T21:30:55.991Z,81.40
2022-08-17T21:33:35.045Z,82.00
2022-08-17T21:36:15.661Z,82.00
2022-08-17T21:38:53.432Z,82.40
2022-08-17T21:41:52.886Z,82.70
2022-08-17T21:44:30.511Z,82.60
2022-08-17T21:47:26.625Z,82.60
2022-08-17T21:50:12.814Z,83.00
2022-08-17T21:52:40.547Z,83.30
2022-08-17T21:55:18.098Z,83.00
2022-08-17T21:57:52.933Z,83.30
2022-08-17T22:00:36.936Z,82.70
2022-08-17T22:03:21.241Z,82.60
2022-08-17T22:05:50.342Z,82.30
2022-08-17T22:08:26.067Z,81.90
2022-08-17T22:11:02.337Z,82.60
2022-08-17T22:13:30.492Z,82.70
2022-08-17T22:16:28.730Z,82.10
2022-08-17T22:18:59.103Z,81.90
2022-08-17T22:21:26.874Z,81.40
2022-08-17T22:24:21.555Z,81.30
2022-08-17T22:27:11.449Z,81.30
2022-08-17T22:30:00.273Z,81.60
2022-08-17T22:32:55.393Z,82.00
2022-08-17T22:35:45.620Z,82.10
2022-08-17T22:38:19.186Z,81.80
2022-08-17T22:41:26.019Z,82.10
2022-08-17T22:43:57.384Z,82.00
2022-08-17T22:46:26.171Z,82.10
2022-08-17T22:48:59.310Z,81.90
2022-08-17T22:51:30.918Z,82.30
2022-08-17T22:54:31.904Z,83.00
2022-08-17T22:57:23.224Z,83.20
2022-08-17T22:59:55.891Z,83.80
2022-08-17T23:02:34.648Z,83.70
2022-08-17T23:05:12.776Z,83.90
2022-08-17T23:07:43.383Z,83.90
2022-08-17T23:10:13.055Z,84.60
2022-08-17T23:12:40.588Z,83.80
2022-08-17T23:15:19.250Z,83.80
2022-08-17T23:17:46.803Z,83.90
2022-08-17T23:20:17.458Z,83.60
2022-08-17T23:22:51.558Z,83.70
2022-08-17T23:25:33.615Z,82.70
2022-08-17T23:28:05.048Z,82.90
2022-08-17T23:30:40.790Z,82.80
2022-08-17T23:33:29.835Z,83.20
2022-08-17T23:35:58.821Z,83.30
2022-08-17T23:38:27.597Z,82.90
2022-08-17T23:40:59.978Z,82.90
2022-08-17T23:43:29.676Z,83.10
2022-08-17T23:46:00.450Z,83.50
2022-08-17T23:48:35.325Z,82.90
2022-08-17T23:51:25.287Z,83.00
2022-08-17T23:54:07.345Z,83.10
2022-08-17T23:56:49.486Z,83.30
2022-08-17T23:59:21.517Z,83.40
